createdAt,value
2018-04-24T00:00:33.298Z,0.00
2018-04-24T00:01:33.251Z,0.00
2018-04-24T00:02:33.209Z,0.00
2018-04-24T00:03:33.164Z,0.00
2018-04-24T00:04:33.119Z,0.00
2018-04-24T00:05:33.076Z,0.00
2018-04-24T00:06:33.033Z,0.00
2018-04-24T00:07:32.995Z,0.00
2018-04-24T00:08:32.941Z,0.00
2018-04-24T00:09:32.899Z,0.00
2018-04-24T00:10:32.854Z,0.00
2018-04-24T00:11:32.806Z,0.00
2018-04-24T00:12:32.765Z,0.00
2018-04-24T00:13:32.720Z,0.00
2018-04-24T00:14:32.675Z,0.00
2018-04-24T00:15:32.631Z,0.00
2018-04-24T00:16:32.587Z,0.00
2018-04-24T00:17:32.541Z,0.00
2018-04-24T00:18:32.497Z,0.00
2018-04-24T00:19:32.452Z,0.00
2018-04-24T00:20:32.407Z,0.00
2018-04-24T00:21:32.371Z,0.00
2018-04-24T00:22:32.319Z,0.00
2018-04-24T00:23:32.274Z,0.00
2018-04-24T00:24:32.235Z,0.00
2018-04-24T00:25:32.188Z,0.00
2018-04-24T00:26:32.145Z,0.00
2018-04-24T00:27:32.101Z,0.00
2018-04-24T00:28:32.053Z,0.00
2018-04-24T00:29:32.013Z,0.00
2018-04-24T00:30:31.966Z,0.00
2018-04-24T00:31:31.920Z,0.00
2018-04-24T00:32:31.875Z,0.00
2018-04-24T00:33:31.827Z,0.00
2018-04-24T00:34:31.788Z,0.00
2018-04-24T00:35:31.741Z,0.00
2018-04-24T00:36:31.700Z,0.00
2018-04-24T00:37:31.655Z,0.00
2018-04-24T00:38:31.607Z,0.00
2018-04-24T00:39:31.565Z,0.00
2018-04-24T00:40:31.520Z,0.00
2018-04-24T00:41:31.476Z,0.00
2018-04-24T00:42:31.433Z,0.00
2018-04-24T00:43:31.387Z,0.00
2018-04-24T00:44:31.342Z,0.00
2018-04-24T00:45:31.297Z,0.00
2018-04-24T00:46:31.258Z,0.00
2018-04-24T00:47:31.208Z,0.00
2018-04-24T00:48:31.167Z,0.00
2018-04-24T00:49:31.119Z,0.00
2018-04-24T00:50:31.075Z,0.00
2018-04-24T00:51:31.032Z,0.00
2018-04-24T00:52:30.987Z,0.00
2018-04-24T00:53:31.035Z,0.00
2018-04-24T00:54:30.901Z,0.00
2018-04-24T00:55:30.856Z,0.00
2018-04-24T00:56:30.810Z,0.00
2018-04-24T00:57:30.764Z,0.00
2018-04-24T00:58:30.720Z,0.00
2018-04-24T00:59:30.680Z,0.00
2018-04-24T01:00:30.630Z,0.00
2018-04-24T01:01:30.587Z,0.00
2018-04-24T01:02:30.544Z,0.00
2018-04-24T01:03:30.499Z,0.00
2018-04-24T01:04:30.451Z,0.00
2018-04-24T01:05:30.412Z,0.00
2018-04-24T01:06:30.364Z,0.00
2018-04-24T01:07:30.321Z,0.00
2018-04-24T01:08:30.280Z,0.00
2018-04-24T01:09:30.234Z,0.00
2018-04-24T01:10:30.186Z,0.00
2018-04-24T01:11:30.144Z,0.00
2018-04-24T01:12:30.098Z,0.00
2018-04-24T01:13:30.053Z,0.00
2018-04-24T01:14:30.012Z,0.00
2018-04-24T01:15:29.975Z,0.00
2018-04-24T01:16:29.920Z,0.00
2018-04-24T01:17:29.876Z,0.00
2018-04-24T01:18:29.854Z,0.00
2018-04-24T01:19:29.787Z,0.00
2018-04-24T01:20:29.747Z,0.00
2018-04-24T01:21:29.700Z,0.00
2018-04-24T01:22:29.655Z,0.00
2018-04-24T01:23:29.614Z,0.00
2018-04-24T01:24:29.565Z,0.00
2018-04-24T01:25:29.523Z,0.00
2018-04-24T01:26:29.481Z,0.00
2018-04-24T01:27:29.432Z,0.00
2018-04-24T01:28:29.387Z,0.00
2018-04-24T01:29:29.345Z,0.00
2018-04-24T01:30:29.302Z,0.00
2018-04-24T01:31:29.257Z,0.00
2018-04-24T01:32:29.210Z,0.00
2018-04-24T01:33:29.171Z,0.00
2018-04-24T01:34:29.123Z,0.00
2018-04-24T01:35:29.082Z,0.00
2018-04-24T01:36:29.031Z,0.00
2018-04-24T01:37:28.995Z,0.00
2018-04-24T01:38:28.947Z,0.00
2018-04-24T01:39:28.900Z,0.00
2018-04-24T01:40:28.855Z,0.00
2018-04-24T01:41:28.811Z,0.00
2018-04-24T01:42:28.767Z,0.00
2018-04-24T01:43:28.722Z,0.00
2018-04-24T01:44:28.676Z,0.00
2018-04-24T01:45:28.633Z,0.00
2018-04-24T01:46:28.588Z,0.00
2018-04-24T01:47:28.545Z,0.00
2018-04-24T01:48:28.496Z,0.00
2018-04-24T01:49:28.453Z,0.00
2018-04-24T01:50:28.409Z,0.00
2018-04-24T01:51:28.363Z,0.00
2018-04-24T01:52:28.315Z,0.00
2018-04-24T01:53:28.274Z,0.00
2018-04-24T01:54:28.228Z,0.00
2018-04-24T01:55:28.182Z,0.00
2018-04-24T01:56:28.140Z,0.00
2018-04-24T01:57:28.097Z,0.00
2018-04-24T01:58:28.052Z,0.00
2018-04-24T01:59:28.008Z,0.00
2018-04-24T02:00:27.966Z,0.00
2018-04-24T02:01:27.914Z,0.00
2018-04-24T02:02:27.874Z,0.00
2018-04-24T02:03:27.833Z,0.00
2018-04-24T02:04:27.784Z,0.00
2018-04-24T02:05:27.740Z,0.00
2018-04-24T02:06:27.696Z,0.00
2018-04-24T02:07:27.650Z,0.00
2018-04-24T02:08:27.613Z,0.00
2018-04-24T02:09:27.563Z,0.00
2018-04-24T02:10:27.514Z,0.00
2018-04-24T02:11:27.473Z,0.00
2018-04-24T02:12:27.426Z,0.00
2018-04-24T02:13:27.382Z,0.00
2018-04-24T02:14:27.338Z,0.00
2018-04-24T02:15:27.292Z,0.00
2018-04-24T02:16:27.250Z,0.00
2018-04-24T02:17:27.204Z,0.00
2018-04-24T02:18:27.160Z,0.00
2018-04-24T02:19:27.114Z,0.00
2018-04-24T02:20:27.071Z,0.00
2018-04-24T02:21:27.027Z,0.00
2018-04-24T02:22:26.991Z,0.00
2018-04-24T02:23:26.935Z,0.00
2018-04-24T02:24:26.899Z,0.00
2018-04-24T02:25:26.848Z,0.00
2018-04-24T02:26:26.799Z,0.00
2018-04-24T02:27:26.755Z,0.00
2018-04-24T02:28:26.711Z,0.00
2018-04-24T02:29:26.673Z,0.00
2018-04-24T02:30:26.625Z,0.00
2018-04-24T02:31:26.579Z,0.00
2018-04-24T02:32:26.532Z,0.00
2018-04-24T02:33:26.493Z,0.00
2018-04-24T02:34:26.442Z,0.00
2018-04-24T02:35:26.399Z,0.00
2018-04-24T02:36:26.355Z,0.00
2018-04-24T02:37:26.309Z,0.00
2018-04-24T02:38:26.267Z,0.00
2018-04-24T02:39:26.220Z,0.00
2018-04-24T02:40:26.246Z,0.00
2018-04-24T02:41:26.131Z,0.00
2018-04-24T02:42:26.084Z,0.00
2018-04-24T02:43:26.040Z,0.00
2018-04-24T02:44:25.997Z,0.00
2018-04-24T02:45:25.955Z,0.00
2018-04-24T02:46:25.909Z,0.00
2018-04-24T02:47:25.860Z,0.00
2018-04-24T02:48:25.821Z,0.00
2018-04-24T02:49:25.772Z,0.00
2018-04-24T02:50:25.728Z,0.00
2018-04-24T02:51:25.681Z,0.00
2018-04-24T02:52:25.636Z,0.00
2018-04-24T02:53:25.591Z,0.00
2018-04-24T02:54:25.558Z,0.00
2018-04-24T02:55:25.500Z,0.00
2018-04-24T02:56:25.457Z,0.00
2018-04-24T02:57:25.415Z,0.00
2018-04-24T02:58:25.369Z,0.00
2018-04-24T02:59:25.321Z,0.00
2018-04-24T03:00:25.276Z,0.00
2018-04-24T03:01:25.232Z,0.00
2018-04-24T03:02:25.190Z,0.00
2018-04-24T03:03:25.141Z,0.00
2018-04-24T03:04:25.181Z,0.00
2018-04-24T03:05:25.051Z,0.00
2018-04-24T03:06:25.009Z,0.00
2018-04-24T03:07:24.960Z,0.00
2018-04-24T03:08:24.916Z,0.00
2018-04-24T03:09:24.873Z,0.00
2018-04-24T03:10:24.828Z,0.00
2018-04-24T03:11:24.782Z,0.00
2018-04-24T03:12:24.735Z,0.00
2018-04-24T03:13:24.697Z,0.00
2018-04-24T03:14:24.646Z,0.00
2018-04-24T03:15:24.603Z,0.00
2018-04-24T03:16:24.556Z,0.00
2018-04-24T03:17:24.516Z,0.00
2018-04-24T03:18:24.466Z,0.00
2018-04-24T03:19:24.421Z,0.00
2018-04-24T03:20:24.380Z,0.00
2018-04-24T03:21:24.334Z,0.00
2018-04-24T03:22:24.285Z,0.00
2018-04-24T03:23:24.243Z,0.00
2018-04-24T03:24:24.194Z,0.00
2018-04-24T03:25:24.153Z,0.00
2018-04-24T03:26:24.105Z,0.00
2018-04-24T03:27:24.062Z,0.00
2018-04-24T03:28:24.017Z,0.00
2018-04-24T03:29:23.972Z,0.00
2018-04-24T03:30:23.927Z,0.00
2018-04-24T03:31:23.881Z,0.00
2018-04-24T03:32:23.835Z,0.00
2018-04-24T03:33:23.791Z,0.00
2018-04-24T03:34:23.746Z,0.00
2018-04-24T03:35:23.700Z,0.00
2018-04-24T03:36:23.656Z,0.00
2018-04-24T03:37:23.610Z,0.00
2018-04-24T03:38:23.569Z,0.00
2018-04-24T03:39:23.524Z,0.00
2018-04-24T03:40:23.480Z,0.00
2018-04-24T03:41:23.442Z,4.00
2018-04-24T03:42:23.387Z,4.00
2018-04-24T03:43:23.346Z,0.00
2018-04-24T03:44:23.295Z,4.00
2018-04-24T03:45:23.252Z,4.00
2018-04-24T03:46:23.209Z,4.00
2018-04-24T03:47:23.161Z,8.00
2018-04-24T03:48:23.116Z,8.00
2018-04-24T03:49:23.071Z,8.00
2018-04-24T03:50:23.026Z,12.00
2018-04-24T03:51:22.980Z,12.00
2018-04-24T03:52:22.936Z,12.00
2018-04-24T03:53:22.891Z,16.00
2018-04-24T03:54:22.847Z,16.00
2018-04-24T03:55:22.800Z,24.00
2018-04-24T03:56:22.756Z,28.00
2018-04-24T03:57:22.710Z,28.00
2018-04-24T03:58:22.664Z,36.00
2018-04-24T03:59:22.619Z,40.00
2018-04-24T04:00:22.575Z,44.00
2018-04-24T04:01:22.531Z,52.00
2018-04-24T04:02:22.485Z,56.00
2018-04-24T04:03:22.438Z,68.00
2018-04-24T04:04:22.392Z,76.00
2018-04-24T04:05:22.351Z,80.00
2018-04-24T04:06:22.304Z,92.00
2018-04-24T04:07:22.258Z,100.00
2018-04-24T04:08:22.214Z,108.00
2018-04-24T04:09:22.171Z,116.00
2018-04-24T04:10:22.125Z,124.00
2018-04-24T04:11:22.080Z,136.00
2018-04-24T04:12:22.037Z,144.00
2018-04-24T04:13:21.984Z,156.00
2018-04-24T04:14:21.941Z,168.00
2018-04-24T04:15:21.901Z,180.00
2018-04-24T04:16:21.856Z,196.00
2018-04-24T04:17:21.811Z,212.00
2018-04-24T04:18:21.762Z,240.00
2018-04-24T04:19:21.726Z,268.00
2018-04-24T04:20:21.675Z,304.00
2018-04-24T04:21:21.627Z,340.00
2018-04-24T04:22:21.582Z,384.00
2018-04-24T04:23:21.536Z,428.00
2018-04-24T04:24:21.489Z,472.00
2018-04-24T04:25:21.453Z,516.00
2018-04-24T04:26:21.401Z,552.00
2018-04-24T04:27:21.357Z,588.00
2018-04-24T04:28:21.309Z,620.00
2018-04-24T04:29:21.266Z,656.00
2018-04-24T04:30:21.218Z,696.00
2018-04-24T04:31:21.172Z,736.00
2018-04-24T04:32:21.133Z,776.00
2018-04-24T04:33:21.082Z,812.00
2018-04-24T04:34:21.040Z,852.00
2018-04-24T04:35:20.994Z,888.00
2018-04-24T04:36:20.948Z,924.00
2018-04-24T04:37:20.908Z,960.00
2018-04-24T04:38:20.863Z,996.00
2018-04-24T04:39:20.814Z,1028.00
2018-04-24T04:40:20.765Z,1068.00
2018-04-24T04:41:20.768Z,1112.00
2018-04-24T04:42:20.679Z,1148.00
2018-04-24T04:43:20.632Z,1188.00
2018-04-24T04:44:20.588Z,1232.00
2018-04-24T04:45:20.541Z,1280.00
2018-04-24T04:46:20.495Z,1336.00
2018-04-24T04:47:20.452Z,1380.00
2018-04-24T04:48:20.406Z,1436.00
2018-04-24T04:49:20.361Z,1504.00
2018-04-24T04:50:20.319Z,1564.00
2018-04-24T04:51:20.272Z,1608.00
2018-04-24T04:52:20.230Z,1648.00
2018-04-24T04:53:20.181Z,1692.00
2018-04-24T04:54:20.137Z,1728.00
2018-04-24T04:55:20.146Z,1768.00
2018-04-24T04:56:20.045Z,1796.00
2018-04-24T04:57:20.000Z,1836.00
2018-04-24T04:58:19.962Z,1876.00
2018-04-24T04:59:19.910Z,1904.00
2018-04-24T05:00:19.865Z,1940.00
2018-04-24T05:01:19.821Z,1972.00
2018-04-24T05:02:19.777Z,1996.00
2018-04-24T05:03:19.732Z,2028.00
2018-04-24T05:04:19.688Z,2072.00
2018-04-24T05:05:19.671Z,2124.00
2018-04-24T05:06:19.597Z,2188.00
2018-04-24T05:07:19.554Z,2292.00
2018-04-24T05:08:19.506Z,2388.00
2018-04-24T05:09:19.464Z,2452.00
2018-04-24T05:10:19.416Z,2524.00
2018-04-24T05:11:19.371Z,2576.00
2018-04-24T05:12:19.326Z,2652.00
2018-04-24T05:13:19.280Z,2712.00
2018-04-24T05:14:19.242Z,2740.00
2018-04-24T05:15:19.193Z,2812.00
2018-04-24T05:16:19.142Z,2888.00
2018-04-24T05:17:19.111Z,3004.00
2018-04-24T05:18:19.060Z,3108.00
2018-04-24T05:19:19.019Z,3176.00
2018-04-24T05:20:18.968Z,3212.00
2018-04-24T05:21:18.925Z,3328.00
2018-04-24T05:22:18.887Z,3440.00
2018-04-24T05:23:18.839Z,3660.00
2018-04-24T05:24:18.794Z,3772.00
2018-04-24T05:25:18.752Z,3884.00
2018-04-24T05:26:18.704Z,3936.00
2018-04-24T05:27:18.665Z,3928.00
2018-04-24T05:28:18.613Z,3908.00
2018-04-24T05:29:18.575Z,3828.00
2018-04-24T05:30:18.534Z,3828.00
2018-04-24T05:31:18.491Z,3968.00
2018-04-24T05:32:18.445Z,4056.00
2018-04-24T05:33:18.396Z,4084.00
2018-04-24T05:34:18.355Z,4112.00
2018-04-24T05:35:18.310Z,4208.00
2018-04-24T05:36:18.276Z,4056.00
2018-04-24T05:37:18.226Z,3976.00
2018-04-24T05:38:18.181Z,3952.00
2018-04-24T05:39:18.147Z,3916.00
2018-04-24T05:40:18.097Z,3792.00
2018-04-24T05:41:18.053Z,3588.00
2018-04-24T05:42:18.009Z,3448.00
2018-04-24T05:43:17.959Z,3388.00
2018-04-24T05:44:17.926Z,3424.00
2018-04-24T05:45:17.954Z,3472.00
2018-04-24T05:46:17.848Z,3560.00
2018-04-24T05:47:17.790Z,3604.00
2018-04-24T05:48:17.976Z,3736.00
2018-04-24T05:49:17.701Z,4000.00
2018-04-24T05:50:17.661Z,4048.00
2018-04-24T05:51:17.611Z,4096.00
2018-04-24T05:52:17.633Z,4040.00
2018-04-24T05:53:17.520Z,3872.00
2018-04-24T05:54:17.488Z,3856.00
2018-04-24T05:55:49.404Z,3832.00
2018-04-24T05:56:17.391Z,3476.00
2018-04-24T05:57:17.426Z,4096.00
2018-04-24T05:58:17.302Z,4276.00
2018-04-24T05:59:17.260Z,4428.00
2018-04-24T06:00:17.225Z,4480.00
2018-04-24T06:01:17.177Z,4552.00
2018-04-24T06:02:17.137Z,4532.00
2018-04-24T06:03:17.087Z,4608.00
2018-04-24T06:04:17.053Z,4648.00
2018-04-24T06:05:17.002Z,4628.00
2018-04-24T06:06:16.960Z,4628.00
2018-04-24T06:07:16.916Z,4748.00
2018-04-24T06:08:16.932Z,4884.00
2018-04-24T06:09:16.834Z,4900.00
2018-04-24T06:10:16.785Z,4980.00
2018-04-24T06:11:16.737Z,5008.00
2018-04-24T06:12:16.699Z,5056.00
2018-04-24T06:13:16.808Z,5080.00
2018-04-24T06:14:16.604Z,5124.00
2018-04-24T06:15:16.565Z,5192.00
2018-04-24T06:16:16.528Z,5256.00
2018-04-24T06:17:16.480Z,5356.00
2018-04-24T06:18:16.434Z,5392.00
2018-04-24T06:19:16.406Z,5436.00
2018-04-24T06:20:16.354Z,5432.00
2018-04-24T06:21:16.307Z,5408.00
2018-04-24T06:22:16.269Z,5312.00
2018-04-24T06:23:16.223Z,5448.00
2018-04-24T06:24:16.171Z,5092.00
2018-04-24T06:25:16.138Z,4400.00
2018-04-24T06:26:16.092Z,5560.00
2018-04-24T06:27:16.059Z,5740.00
2018-04-24T06:28:16.023Z,5748.00
2018-04-24T06:29:15.962Z,5824.00
2018-04-24T06:30:15.919Z,6084.00
2018-04-24T06:31:15.893Z,6280.00
2018-04-24T06:32:15.832Z,6480.00
2018-04-24T06:33:15.787Z,6628.00
2018-04-24T06:34:15.899Z,6708.00
2018-04-24T06:35:15.698Z,6592.00
2018-04-24T06:36:15.661Z,5848.00
2018-04-24T06:37:15.613Z,5992.00
2018-04-24T06:38:15.574Z,6128.00
2018-04-24T06:39:15.596Z,6928.00
2018-04-24T06:40:15.481Z,7220.00
2018-04-24T06:41:15.437Z,7392.00
2018-04-24T06:42:15.528Z,7768.00
2018-04-24T06:43:15.353Z,8712.00
2018-04-24T06:44:15.319Z,9296.00
2018-04-24T06:45:15.274Z,9132.00
2018-04-24T06:46:15.224Z,8292.00
2018-04-24T06:47:15.178Z,7536.00
2018-04-24T06:48:15.207Z,8308.00
2018-04-24T06:49:15.110Z,8316.00
2018-04-24T06:50:15.055Z,7396.00
2018-04-24T06:51:15.004Z,7676.00
2018-04-24T06:52:15.026Z,6936.00
2018-04-24T06:53:14.926Z,7868.00
2018-04-24T06:54:14.893Z,7292.00
2018-04-24T06:55:14.842Z,5492.00
2018-04-24T06:56:14.811Z,5952.00
2018-04-24T06:57:14.763Z,5452.00
2018-04-24T06:58:14.716Z,5664.00
2018-04-24T06:59:14.676Z,5888.00
2018-04-24T07:00:14.634Z,6080.00
2018-04-24T07:01:14.587Z,6140.00
2018-04-24T07:02:14.555Z,5948.00
2018-04-24T07:03:14.518Z,5816.00
2018-04-24T07:04:14.464Z,5848.00
2018-04-24T07:05:14.422Z,5932.00
2018-04-24T07:06:14.656Z,7548.00
2018-04-24T07:07:14.348Z,6052.00
2018-04-24T07:08:14.302Z,6040.00
2018-04-24T07:09:14.278Z,6572.00
2018-04-24T07:10:14.230Z,6024.00
2018-04-24T07:11:14.177Z,8028.00
2018-04-24T07:12:14.384Z,7076.00
2018-04-24T07:13:14.100Z,8964.00
2018-04-24T07:14:14.079Z,9268.00
2018-04-24T07:15:14.003Z,7592.00
2018-04-24T07:16:13.973Z,9872.00
2018-04-24T07:17:13.939Z,10020.00
2018-04-24T07:18:13.874Z,8516.00
2018-04-24T07:19:13.833Z,10560.00
2018-04-24T07:20:13.791Z,9564.00
2018-04-24T07:21:13.755Z,10196.00
2018-04-24T07:22:13.757Z,8604.00
2018-04-24T07:23:13.684Z,9144.00
2018-04-24T07:24:13.656Z,7688.00
2018-04-24T07:25:13.609Z,7408.00
2018-04-24T07:26:13.548Z,7068.00
2018-04-24T07:27:13.529Z,7172.00
2018-04-24T07:28:13.464Z,9072.00
2018-04-24T07:29:13.440Z,6484.00
2018-04-24T07:30:13.392Z,6152.00
2018-04-24T07:31:13.338Z,6348.00
2018-04-24T07:32:13.299Z,8852.00
2018-04-24T07:33:27.935Z,8920.00
2018-04-24T07:34:13.217Z,8552.00
2018-04-24T07:35:13.169Z,6340.00
2018-04-24T07:36:13.128Z,8940.00
2018-04-24T07:37:13.082Z,6624.00
2018-04-24T07:38:14.518Z,7176.00
2018-04-24T07:39:12.997Z,7504.00
2018-04-24T07:40:12.967Z,6892.00
2018-04-24T07:41:12.941Z,7176.00
2018-04-24T07:42:12.917Z,8020.00
2018-04-24T07:43:12.868Z,9960.00
2018-04-24T07:44:12.807Z,9972.00
2018-04-24T07:45:12.755Z,8532.00
2018-04-24T07:46:12.734Z,10120.00
2018-04-24T07:47:12.891Z,9380.00
2018-04-24T07:48:12.628Z,9736.00
2018-04-24T07:49:12.604Z,7392.00
2018-04-24T07:50:12.553Z,7436.00
2018-04-24T07:51:12.510Z,7640.00
2018-04-24T07:52:12.551Z,9276.00
2018-04-24T07:53:12.425Z,6944.00
2018-04-24T07:54:12.419Z,6728.00
2018-04-24T07:55:12.345Z,8128.00
2018-04-24T07:56:12.402Z,6000.00
2018-04-24T07:57:12.366Z,6036.00
2018-04-24T07:58:12.211Z,5552.00
2018-04-24T07:59:12.246Z,5012.00
2018-04-24T08:00:12.138Z,4836.00
2018-04-24T08:01:12.094Z,4784.00
2018-04-24T08:02:12.053Z,4896.00
2018-04-24T08:03:12.007Z,7004.00
2018-04-24T08:04:11.969Z,8580.00
2018-04-24T08:05:11.926Z,8876.00
2018-04-24T08:06:11.888Z,7328.00
2018-04-24T08:07:12.443Z,9124.00
2018-04-24T08:08:11.899Z,9040.00
2018-04-24T08:09:11.756Z,9368.00
2018-04-24T08:10:11.713Z,9816.00
2018-04-24T08:11:11.705Z,10148.00
2018-04-24T08:12:11.639Z,10252.00
2018-04-24T08:13:11.681Z,10696.00
2018-04-24T08:14:11.696Z,8560.00
2018-04-24T08:15:11.504Z,9408.00
2018-04-24T08:16:11.472Z,11240.00
2018-04-24T08:17:11.710Z,9404.00
2018-04-24T08:18:11.445Z,10908.00
2018-04-24T08:19:11.381Z,10420.00
2018-04-24T08:20:11.304Z,10232.00
2018-04-24T08:21:11.549Z,9772.00
2018-04-24T08:22:11.222Z,7660.00
2018-04-24T08:23:11.190Z,9388.00
2018-04-24T08:24:11.130Z,10200.00
2018-04-24T08:25:11.101Z,9948.00
2018-04-24T08:26:11.061Z,10296.00
2018-04-24T08:27:11.017Z,10548.00
2018-04-24T08:28:10.967Z,11016.00
2018-04-24T08:29:10.979Z,10820.00
2018-04-24T08:30:10.896Z,10560.00
2018-04-24T08:31:10.841Z,10408.00
2018-04-24T08:32:10.802Z,10548.00
2018-04-24T08:33:10.760Z,10852.00
2018-04-24T08:34:10.725Z,10696.00
2018-04-24T08:35:10.789Z,10040.00
2018-04-24T08:36:10.637Z,6476.00
2018-04-24T08:37:10.598Z,10072.00
2018-04-24T08:38:10.558Z,9584.00
2018-04-24T08:39:10.526Z,8396.00
2018-04-24T08:40:10.513Z,9140.00
2018-04-24T08:41:10.525Z,9300.00
2018-04-24T08:42:10.460Z,5948.00
2018-04-24T08:43:10.751Z,9604.00
2018-04-24T08:44:10.502Z,9832.00
2018-04-24T08:45:10.331Z,7432.00
2018-04-24T08:46:10.231Z,10248.00
2018-04-24T08:47:10.191Z,9992.00
2018-04-24T08:48:10.182Z,7004.00
2018-04-24T08:49:10.129Z,7032.00
2018-04-24T08:50:10.082Z,7060.00
2018-04-24T08:51:10.027Z,9584.00
2018-04-24T08:52:09.995Z,5804.00
2018-04-24T08:53:09.947Z,9496.00
2018-04-24T08:54:09.911Z,9796.00
2018-04-24T08:55:09.874Z,9972.00
2018-04-24T08:56:09.836Z,9908.00
2018-04-24T08:57:09.791Z,10380.00
2018-04-24T08:58:09.751Z,10464.00
2018-04-24T08:59:09.790Z,10448.00
2018-04-24T09:00:09.667Z,8124.00
2018-04-24T09:01:09.634Z,11168.00
2018-04-24T09:02:09.591Z,11560.00
2018-04-24T09:03:09.540Z,11748.00
2018-04-24T09:04:09.498Z,7632.00
2018-04-24T09:05:09.462Z,7168.00
2018-04-24T09:06:09.434Z,7092.00
2018-04-24T09:07:09.377Z,7408.00
2018-04-24T09:08:09.344Z,7548.00
2018-04-24T09:09:09.371Z,8140.00
2018-04-24T09:10:09.266Z,10996.00
2018-04-24T09:11:09.885Z,8760.00
2018-04-24T09:12:09.201Z,6504.00
2018-04-24T09:13:09.137Z,10104.00
2018-04-24T09:14:09.184Z,5968.00
2018-04-24T09:15:09.961Z,5684.00
2018-04-24T09:16:09.021Z,9536.00
2018-04-24T09:17:08.980Z,10312.00
2018-04-24T09:18:08.942Z,10316.00
2018-04-24T09:19:08.892Z,10404.00
2018-04-24T09:20:08.855Z,10432.00
2018-04-24T09:21:08.837Z,10452.00
2018-04-24T09:22:08.774Z,10324.00
2018-04-24T09:23:08.737Z,8104.00
2018-04-24T09:24:08.698Z,6440.00
2018-04-24T09:25:08.664Z,6612.00
2018-04-24T09:26:08.616Z,6272.00
2018-04-24T09:27:08.607Z,7008.00
2018-04-24T09:28:08.538Z,6720.00
2018-04-24T09:29:08.583Z,10188.00
2018-04-24T09:30:08.522Z,10080.00
2018-04-24T09:31:08.406Z,10108.00
2018-04-24T09:32:08.542Z,9976.00
2018-04-24T09:33:08.333Z,10044.00
2018-04-24T09:34:08.282Z,10216.00
2018-04-24T09:35:08.237Z,10348.00
2018-04-24T09:36:08.204Z,10040.00
2018-04-24T09:37:08.160Z,10204.00
2018-04-24T09:38:08.127Z,10160.00
2018-04-24T09:39:08.087Z,9904.00
2018-04-24T09:40:08.083Z,10332.00
2018-04-24T09:41:08.005Z,7696.00
2018-04-24T09:42:07.956Z,6872.00
2018-04-24T09:43:07.917Z,7216.00
2018-04-24T09:44:07.882Z,10896.00
2018-04-24T09:45:07.885Z,6840.00
2018-04-24T09:46:07.800Z,7760.00
2018-04-24T09:47:07.759Z,9908.00
2018-04-24T09:48:07.728Z,6832.00
2018-04-24T09:49:07.676Z,6920.00
2018-04-24T09:50:07.641Z,7400.00
2018-04-24T09:51:07.674Z,8692.00
2018-04-24T09:52:07.631Z,10780.00
2018-04-24T09:53:07.507Z,10896.00
2018-04-24T09:54:07.466Z,6888.00
2018-04-24T09:55:07.468Z,6924.00
2018-04-24T09:56:07.391Z,10576.00
2018-04-24T09:57:07.345Z,10688.00
2018-04-24T09:58:07.307Z,11176.00
2018-04-24T09:59:07.261Z,11420.00
2018-04-24T10:00:07.233Z,8064.00
2018-04-24T10:02:39.245Z,11464.00
2018-04-24T10:03:39.174Z,10900.00
2018-04-24T10:04:39.134Z,11432.00
2018-04-24T10:05:39.095Z,8332.00
2018-04-24T10:08:11.158Z,7676.00
2018-04-24T10:09:11.118Z,7328.00
2018-04-24T10:10:11.008Z,7472.00
2018-04-24T10:11:10.974Z,10468.00
2018-04-24T10:12:10.952Z,9104.00
2018-04-24T10:13:10.887Z,10500.00
2018-04-24T10:14:10.852Z,10040.00
2018-04-24T10:15:10.809Z,10100.00
2018-04-24T10:16:10.918Z,10320.00
2018-04-24T10:17:10.865Z,10648.00
2018-04-24T10:18:10.853Z,11036.00
2018-04-24T10:19:10.862Z,11488.00
2018-04-24T10:20:10.802Z,11576.00
2018-04-24T10:21:10.566Z,11536.00
2018-04-24T10:22:10.528Z,11384.00
2018-04-24T10:23:10.485Z,11736.00
2018-04-24T10:24:10.441Z,11928.00
2018-04-24T10:25:10.410Z,11432.00
2018-04-24T10:26:10.366Z,11492.00
2018-04-24T10:27:10.328Z,11536.00
2018-04-24T10:28:10.285Z,9260.00
2018-04-24T10:29:10.248Z,11824.00
2018-04-24T10:30:10.201Z,8108.00
2018-04-24T10:31:10.161Z,7884.00
2018-04-24T10:32:10.121Z,7944.00
2018-04-24T10:33:10.088Z,7932.00
2018-04-24T10:34:10.051Z,11784.00
2018-04-24T10:35:09.999Z,11972.00
2018-04-24T10:36:09.961Z,11760.00
2018-04-24T10:37:09.957Z,11968.00
2018-04-24T10:38:09.885Z,12212.00
2018-04-24T10:39:09.847Z,12612.00
2018-04-24T10:40:09.805Z,12144.00
2018-04-24T10:41:09.765Z,11612.00
2018-04-24T10:42:09.720Z,7904.00
2018-04-24T10:43:09.678Z,6816.00
2018-04-24T10:44:09.639Z,6368.00
2018-04-24T10:45:09.598Z,6012.00
2018-04-24T10:46:09.564Z,5752.00
2018-04-24T10:47:09.526Z,5804.00
2018-04-24T10:48:09.535Z,6000.00
2018-04-24T10:49:09.439Z,6324.00
2018-04-24T10:50:09.401Z,6612.00
2018-04-24T10:51:09.360Z,6760.00
2018-04-24T10:52:09.319Z,6936.00
2018-04-24T10:53:09.277Z,7420.00
2018-04-24T10:54:09.238Z,7724.00
2018-04-24T10:55:09.203Z,10784.00
2018-04-24T10:56:09.162Z,11940.00
2018-04-24T10:57:09.120Z,11808.00
2018-04-24T10:58:09.082Z,11824.00
2018-04-24T10:59:09.048Z,7936.00
2018-04-24T11:00:09.000Z,7996.00
2018-04-24T11:01:08.961Z,8680.00
2018-04-24T11:02:08.920Z,11860.00
2018-04-24T11:03:08.882Z,11632.00
2018-04-24T11:04:08.846Z,11664.00
2018-04-24T11:05:08.810Z,11544.00
2018-04-24T11:06:08.762Z,11568.00
2018-04-24T11:07:08.773Z,11604.00
2018-04-24T11:08:08.687Z,11708.00
2018-04-24T11:09:08.645Z,11880.00
2018-04-24T11:10:08.621Z,11864.00
2018-04-24T11:11:08.567Z,11956.00
2018-04-24T11:12:08.521Z,11980.00
2018-04-24T11:13:08.487Z,12108.00
2018-04-24T11:14:08.464Z,12108.00
2018-04-24T11:15:08.407Z,10708.00
2018-04-24T11:16:08.365Z,12300.00
2018-04-24T11:17:08.321Z,12004.00
2018-04-24T11:18:08.291Z,11796.00
2018-04-24T11:19:08.257Z,11632.00
2018-04-24T11:20:08.208Z,11652.00
2018-04-24T11:21:08.163Z,11844.00
2018-04-24T11:22:08.142Z,12112.00
2018-04-24T11:23:08.099Z,11952.00
2018-04-24T11:24:08.100Z,11916.00
2018-04-24T11:25:08.004Z,11800.00
2018-04-24T11:26:07.968Z,11540.00
2018-04-24T11:27:07.927Z,11104.00
2018-04-24T11:28:07.887Z,11152.00
2018-04-24T11:29:07.852Z,11448.00
2018-04-24T11:30:07.812Z,9916.00
2018-04-24T11:31:07.772Z,10884.00
2018-04-24T11:32:07.729Z,10760.00
2018-04-24T11:33:07.692Z,10424.00
2018-04-24T11:34:07.687Z,10136.00
2018-04-24T11:35:07.618Z,10100.00
2018-04-24T11:36:07.573Z,9944.00
2018-04-24T11:37:07.540Z,9848.00
2018-04-24T11:38:07.496Z,9648.00
2018-04-24T11:39:07.457Z,10076.00
2018-04-24T11:40:07.417Z,7376.00
2018-04-24T11:41:07.377Z,7048.00
2018-04-24T11:42:07.348Z,7036.00
2018-04-24T11:43:07.304Z,10128.00
2018-04-24T11:44:07.344Z,10292.00
2018-04-24T11:45:07.287Z,10452.00
2018-04-24T11:46:07.183Z,10552.00
2018-04-24T11:47:07.144Z,10524.00
2018-04-24T11:48:07.104Z,9124.00
2018-04-24T11:49:07.066Z,9396.00
2018-04-24T11:50:07.026Z,7696.00
2018-04-24T11:51:06.985Z,7432.00
2018-04-24T11:52:06.946Z,10220.00
2018-04-24T11:53:06.909Z,7796.00
2018-04-24T11:54:06.868Z,10300.00
2018-04-24T11:55:06.830Z,10320.00
2018-04-24T11:56:06.787Z,8728.00
2018-04-24T11:57:06.752Z,10028.00
2018-04-24T11:58:06.711Z,9092.00
2018-04-24T11:59:06.671Z,7776.00
2018-04-24T12:00:06.634Z,8016.00
2018-04-24T12:01:06.592Z,10584.00
2018-04-24T12:02:06.554Z,10228.00
2018-04-24T12:03:06.516Z,9864.00
2018-04-24T12:04:06.483Z,10004.00
2018-04-24T12:05:06.437Z,10036.00
2018-04-24T12:06:06.395Z,7948.00
2018-04-24T12:07:06.357Z,7024.00
2018-04-24T12:08:06.315Z,7164.00
2018-04-24T12:09:06.276Z,7108.00
2018-04-24T12:10:06.273Z,7284.00
2018-04-24T12:11:06.197Z,10872.00
2018-04-24T12:12:06.158Z,11324.00
2018-04-24T12:13:06.126Z,11364.00
2018-04-24T12:14:06.080Z,10540.00
2018-04-24T12:15:06.039Z,11388.00
2018-04-24T12:16:05.999Z,11400.00
2018-04-24T12:17:05.959Z,11332.00
2018-04-24T12:18:05.921Z,11120.00
2018-04-24T12:19:05.881Z,10536.00
2018-04-24T12:20:05.845Z,10704.00
2018-04-24T12:21:05.802Z,10708.00
2018-04-24T12:22:05.775Z,10780.00
2018-04-24T12:23:05.723Z,10832.00
2018-04-24T12:24:05.684Z,10824.00
2018-04-24T12:25:05.645Z,10952.00
2018-04-24T12:26:05.606Z,10056.00
2018-04-24T12:27:05.567Z,11092.00